sensor_id;sensor_type;location;lat;lon;timestamp;temperature;humidity
20091;DHT22;10205;49.678;6.560;2023-03-01T00:01:09;5.70;51.50
20091;DHT22;10205;49.678;6.560;2023-03-01T00:03:38;5.70;51.50
20091;DHT22;10205;49.678;6.560;2023-03-01T00:06:06;5.70;51.50
20091;DHT22;10205;49.678;6.560;2023-03-01T00:08:35;5.70;51.60
20091;DHT22;10205;49.678;6.560;2023-03-01T00:11:05;5.70;51.60
20091;DHT22;10205;49.678;6.560;2023-03-01T00:13:34;5.60;51.60
20091;DHT22;10205;49.678;6.560;2023-03-01T00:16:03;5.60;51.70
20091;DHT22;10205;49.678;6.560;2023-03-01T00:18:30;5.60;51.70
20091;DHT22;10205;49.678;6.560;2023-03-01T00:20:58;5.60;51.70
20091;DHT22;10205;49.678;6.560;2023-03-01T00:23:26;5.60;51.70
20091;DHT22;10205;49.678;6.560;2023-03-01T00:25:54;5.60;51.70
20091;DHT22;10205;49.678;6.560;2023-03-01T03:05:21;3.80;53.20
20091;DHT22;10205;49.678;6.560;2023-03-01T03:07:50;3.80;52.90
20091;DHT22;10205;49.678;6.560;2023-03-01T03:10:19;3.70;53.30
20091;DHT22;10205;49.678;6.560;2023-03-01T03:12:49;3.70;53.50
20091;DHT22;10205;49.678;6.560;2023-03-01T03:15:18;3.70;53.60
20091;DHT22;10205;49.678;6.560;2023-03-01T03:17:47;3.70;53.60
20091;DHT22;10205;49.678;6.560;2023-03-01T03:20:17;3.70;53.60
20091;DHT22;10205;49.678;6.560;2023-03-01T03:22:48;3.70;53.70
20091;DHT22;10205;49.678;6.560;2023-03-01T03:25:17;3.70;53.70
20091;DHT22;10205;49.678;6.560;2023-03-01T03:27:49;3.60;53.60
20091;DHT22;10205;49.678;6.560;2023-03-01T03:30:22;3.60;53.60
20091;DHT22;10205;49.678;6.560;2023-03-01T03:32:51;3.60;53.70
20091;DHT22;10205;49.678;6.560;2023-03-01T03:35:21;3.60;53.80
20091;DHT22;10205;49.678;6.560;2023-03-01T03:37:51;3.60;53.90
20091;DHT22;10205;49.678;6.560;2023-03-01T03:40:43;3.60;54.50
20091;DHT22;10205;49.678;6.560;2023-03-01T03:43:12;3.60;53.80
20091;DHT22;10205;49.678;6.560;2023-03-01T03:45:40;3.60;53.90
20091;DHT22;10205;49.678;6.560;2023-03-01T03:48:09;3.60;53.90
20091;DHT22;10205;49.678;6.560;2023-03-01T03:50:40;3.60;53.90
20091;DHT22;10205;49.678;6.560;2023-03-01T03:53:09;3.60;54.00
20091;DHT22;10205;49.678;6.560;2023-03-01T03:55:39;3.60;54.10
20091;DHT22;10205;49.678;6.560;2023-03-01T03:58:10;3.60;54.10
20091;DHT22;10205;49.678;6.560;2023-03-01T04:00:39;3.50;54.00
20091;DHT22;10205;49.678;6.560;2023-03-01T04:03:09;3.50;54.20
20091;DHT22;10205;49.678;6.560;2023-03-01T04:05:39;3.50;54.20
20091;DHT22;10205;49.678;6.560;2023-03-01T04:08:07;3.40;54.40
20091;DHT22;10205;49.678;6.560;2023-03-01T04:10:36;3.40;54.40
20091;DHT22;10205;49.678;6.560;2023-03-01T04:13:04;3.40;54.40
20091;DHT22;10205;49.678;6.560;2023-03-01T04:15:33;3.40;54.40
20091;DHT22;10205;49.678;6.560;2023-03-01T04:18:01;3.40;54.50
20091;DHT22;10205;49.678;6.560;2023-03-01T04:20:31;3.40;54.50
20091;DHT22;10205;49.678;6.560;2023-03-01T04:23:05;3.40;54.70
20091;DHT22;10205;49.678;6.560;2023-03-01T04:25:39;3.40;54.70
20091;DHT22;10205;49.678;6.560;2023-03-01T04:28:07;3.40;54.60
20091;DHT22;10205;49.678;6.560;2023-03-01T04:30:35;3.40;54.60
20091;DHT22;10205;49.678;6.560;2023-03-01T04:33:04;3.40;54.70
20091;DHT22;10205;49.678;6.560;2023-03-01T04:35:34;3.40;54.60
20091;DHT22;10205;49.678;6.560;2023-03-01T04:38:03;3.30;54.60
20091;DHT22;10205;49.678;6.560;2023-03-01T04:40:31;3.40;54.70
20091;DHT22;10205;49.678;6.560;2023-03-01T04:43:01;3.30;54.70
20091;DHT22;10205;49.678;6.560;2023-03-01T04:45:32;3.30;54.90
20091;DHT22;10205;49.678;6.560;2023-03-01T04:48:01;3.30;54.80
20091;DHT22;10205;49.678;6.560;2023-03-01T04:50:28;3.30;54.80
20091;DHT22;10205;49.678;6.560;2023-03-01T04:52:56;3.30;55.00
20091;DHT22;10205;49.678;6.560;2023-03-01T04:55:28;3.30;55.00
20091;DHT22;10205;49.678;6.560;2023-03-01T04:57:56;3.30;55.10
20091;DHT22;10205;49.678;6.560;2023-03-01T05:00:23;3.30;55.00
20091;DHT22;10205;49.678;6.560;2023-03-01T05:02:53;3.30;55.00
20091;DHT22;10205;49.678;6.560;2023-03-01T05:05:24;3.30;55.00
20091;DHT22;10205;49.678;6.560;2023-03-01T05:07:54;3.30;55.00
20091;DHT22;10205;49.678;6.560;2023-03-01T05:10:22;3.20;55.00
20091;DHT22;10205;49.678;6.560;2023-03-01T05:12:52;3.20;55.00
20091;DHT22;10205;49.678;6.560;2023-03-01T05:15:19;3.30;55.10
20091;DHT22;10205;49.678;6.560;2023-03-01T05:17:49;3.30;55.10
20091;DHT22;10205;49.678;6.560;2023-03-01T05:20:16;3.30;55.10
20091;DHT22;10205;49.678;6.560;2023-03-01T05:22:43;3.20;55.00
20091;DHT22;10205;49.678;6.560;2023-03-01T05:25:10;3.30;55.10
20091;DHT22;10205;49.678;6.560;2023-03-01T05:27:39;3.30;55.10
20091;DHT22;10205;49.678;6.560;2023-03-01T05:30:09;3.30;55.10
20091;DHT22;10205;49.678;6.560;2023-03-01T05:32:43;3.30;55.20
20091;DHT22;10205;49.678;6.560;2023-03-01T05:35:14;3.30;55.10
20091;DHT22;10205;49.678;6.560;2023-03-01T05:37:43;3.30;55.00
20091;DHT22;10205;49.678;6.560;2023-03-01T05:40:14;3.30;55.00
20091;DHT22;10205;49.678;6.560;2023-03-01T05:42:46;3.30;55.10
20091;DHT22;10205;49.678;6.560;2023-03-01T05:45:16;3.30;55.10
20091;DHT22;10205;49.678;6.560;2023-03-01T05:47:45;3.30;55.00
20091;DHT22;10205;49.678;6.560;2023-03-01T05:50:15;3.30;55.20
20091;DHT22;10205;49.678;6.560;2023-03-01T05:52:46;3.30;55.30
20091;DHT22;10205;49.678;6.560;2023-03-01T05:55:16;3.30;55.30
20091;DHT22;10205;49.678;6.560;2023-03-01T05:57:45;3.30;55.20
20091;DHT22;10205;49.678;6.560;2023-03-01T06:00:20;3.30;55.10
20091;DHT22;10205;49.678;6.560;2023-03-01T06:02:48;3.30;55.20
20091;DHT22;10205;49.678;6.560;2023-03-01T06:05:17;3.20;55.10
20091;DHT22;10205;49.678;6.560;2023-03-01T06:07:44;3.30;55.10
20091;DHT22;10205;49.678;6.560;2023-03-01T06:10:12;3.30;55.10
20091;DHT22;10205;49.678;6.560;2023-03-01T06:12:41;3.30;55.20
20091;DHT22;10205;49.678;6.560;2023-03-01T06:15:11;3.30;55.30
20091;DHT22;10205;49.678;6.560;2023-03-01T06:17:41;3.30;55.20
20091;DHT22;10205;49.678;6.560;2023-03-01T06:20:17;3.30;55.30
20091;DHT22;10205;49.678;6.560;2023-03-01T06:22:45;3.30;55.40
20091;DHT22;10205;49.678;6.560;2023-03-01T06:25:15;3.30;55.30
20091;DHT22;10205;49.678;6.560;2023-03-01T06:27:43;3.30;55.40
20091;DHT22;10205;49.678;6.560;2023-03-01T06:30:13;3.30;55.40
20091;DHT22;10205;49.678;6.560;2023-03-01T06:32:43;3.30;55.40
20091;DHT22;10205;49.678;6.560;2023-03-01T06:35:12;3.20;55.40
20091;DHT22;10205;49.678;6.560;2023-03-01T06:37:43;3.20;55.30
20091;DHT22;10205;49.678;6.560;2023-03-01T06:40:11;3.20;55.40
20091;DHT22;10205;49.678;6.560;2023-03-01T06:42:41;3.20;55.40
20091;DHT22;10205;49.678;6.560;2023-03-01T06:45:11;3.20;56.10
20091;DHT22;10205;49.678;6.560;2023-03-01T06:47:38;3.20;55.50
20091;DHT22;10205;49.678;6.560;2023-03-01T06:50:08;3.20;55.50
20091;DHT22;10205;49.678;6.560;2023-03-01T06:52:36;3.20;55.60
20091;DHT22;10205;49.678;6.560;2023-03-01T06:55:04;3.10;55.60
20091;DHT22;10205;49.678;6.560;2023-03-01T06:57:32;3.10;55.50
20091;DHT22;10205;49.678;6.560;2023-03-01T06:59:59;3.10;56.40
20091;DHT22;10205;49.678;6.560;2023-03-01T07:02:27;3.10;55.70
20091;DHT22;10205;49.678;6.560;2023-03-01T07:04:54;3.10;55.90
20091;DHT22;10205;49.678;6.560;2023-03-01T07:07:23;3.10;56.10
20091;DHT22;10205;49.678;6.560;2023-03-01T07:09:50;3.10;56.20
20091;DHT22;10205;49.678;6.560;2023-03-01T07:12:18;3.10;56.50
20091;DHT22;10205;49.678;6.560;2023-03-01T07:14:45;3.10;56.20
20091;DHT22;10205;49.678;6.560;2023-03-01T07:17:12;3.10;56.00
20091;DHT22;10205;49.678;6.560;2023-03-01T07:19:39;3.00;56.10
20091;DHT22;10205;49.678;6.560;2023-03-01T07:22:06;3.10;56.50
20091;DHT22;10205;49.678;6.560;2023-03-01T07:24:36;3.10;56.30
20091;DHT22;10205;49.678;6.560;2023-03-01T07:27:03;3.00;56.30
20091;DHT22;10205;49.678;6.560;2023-03-01T07:29:30;3.00;56.30
20091;DHT22;10205;49.678;6.560;2023-03-01T07:31:57;3.00;57.00
20091;DHT22;10205;49.678;6.560;2023-03-01T07:34:27;3.00;56.50
20091;DHT22;10205;49.678;6.560;2023-03-01T07:36:54;3.00;56.70
20091;DHT22;10205;49.678;6.560;2023-03-01T07:39:21;3.00;56.60
20091;DHT22;10205;49.678;6.560;2023-03-01T07:41:50;3.10;56.70
20091;DHT22;10205;49.678;6.560;2023-03-01T07:44:18;3.10;57.00
20091;DHT22;10205;49.678;6.560;2023-03-01T07:46:45;3.10;57.50
20091;DHT22;10205;49.678;6.560;2023-03-01T07:49:12;3.00;56.80
20091;DHT22;10205;49.678;6.560;2023-03-01T07:51:39;3.00;56.80
20091;DHT22;10205;49.678;6.560;2023-03-01T07:54:07;3.10;57.00
20091;DHT22;10205;49.678;6.560;2023-03-01T07:56:34;3.10;57.10
20091;DHT22;10205;49.678;6.560;2023-03-01T07:59:03;3.10;56.80
20091;DHT22;10205;49.678;6.560;2023-03-01T08:01:30;3.10;56.90
20091;DHT22;10205;49.678;6.560;2023-03-01T08:03:57;3.10;56.90
20091;DHT22;10205;49.678;6.560;2023-03-01T08:06:24;3.10;57.10
20091;DHT22;10205;49.678;6.560;2023-03-01T08:08:51;3.10;57.00
20091;DHT22;10205;49.678;6.560;2023-03-01T08:11:20;3.10;57.00
20091;DHT22;10205;49.678;6.560;2023-03-01T08:13:48;3.10;57.30
20091;DHT22;10205;49.678;6.560;2023-03-01T08:16:17;3.20;57.10
20091;DHT22;10205;49.678;6.560;2023-03-01T08:18:44;3.20;57.10
20091;DHT22;10205;49.678;6.560;2023-03-01T08:21:13;3.20;57.30
20091;DHT22;10205;49.678;6.560;2023-03-01T08:23:41;3.20;57.30
20091;DHT22;10205;49.678;6.560;2023-03-01T08:26:10;3.20;57.20
20091;DHT22;10205;49.678;6.560;2023-03-01T08:28:39;3.20;57.20
20091;DHT22;10205;49.678;6.560;2023-03-01T08:31:15;3.20;57.40
20091;DHT22;10205;49.678;6.560;2023-03-01T08:33:45;3.20;57.50
20091;DHT22;10205;49.678;6.560;2023-03-01T08:36:16;3.30;57.70
20091;DHT22;10205;49.678;6.560;2023-03-01T08:38:44;3.20;57.50
20091;DHT22;10205;49.678;6.560;2023-03-01T08:41:11;3.30;57.70
20091;DHT22;10205;49.678;6.560;2023-03-01T08:43:38;3.30;58.50
20091;DHT22;10205;49.678;6.560;2023-03-01T08:46:05;3.30;57.90
20091;DHT22;10205;49.678;6.560;2023-03-01T08:48:33;3.30;58.00
20091;DHT22;10205;49.678;6.560;2023-03-01T08:51:07;3.30;58.00
20091;DHT22;10205;49.678;6.560;2023-03-01T08:53:35;3.40;58.00
20091;DHT22;10205;49.678;6.560;2023-03-01T08:56:02;3.40;57.80
20091;DHT22;10205;49.678;6.560;2023-03-01T08:58:30;3.40;57.70
20091;DHT22;10205;49.678;6.560;2023-03-01T09:00:57;3.50;57.70
20091;DHT22;10205;49.678;6.560;2023-03-01T09:03:25;3.50;57.90
20091;DHT22;10205;49.678;6.560;2023-03-01T09:05:59;3.60;57.80
20091;DHT22;10205;49.678;6.560;2023-03-01T09:08:27;3.60;57.70
20091;DHT22;10205;49.678;6.560;2023-03-01T09:10:54;3.70;57.70
20091;DHT22;10205;49.678;6.560;2023-03-01T09:13:21;3.70;57.70
20091;DHT22;10205;49.678;6.560;2023-03-01T09:15:50;3.70;57.80
20091;DHT22;10205;49.678;6.560;2023-03-01T09:18:17;3.80;57.60
20091;DHT22;10205;49.678;6.560;2023-03-01T09:20:45;3.90;57.70
20091;DHT22;10205;49.678;6.560;2023-03-01T09:23:13;3.90;57.60
20091;DHT22;10205;49.678;6.560;2023-03-01T09:25:40;3.90;57.40
20091;DHT22;10205;49.678;6.560;2023-03-01T09:28:07;4.00;57.50
20091;DHT22;10205;49.678;6.560;2023-03-01T09:30:36;4.10;57.60
20091;DHT22;10205;49.678;6.560;2023-03-01T09:33:03;4.10;57.40
20091;DHT22;10205;49.678;6.560;2023-03-01T09:35:30;4.20;57.50
20091;DHT22;10205;49.678;6.560;2023-03-01T09:38:00;4.30;57.50
20091;DHT22;10205;49.678;6.560;2023-03-01T09:40:29;4.30;57.30
20091;DHT22;10205;49.678;6.560;2023-03-01T09:43:01;4.40;57.40
20091;DHT22;10205;49.678;6.560;2023-03-01T09:45:34;4.50;57.10
20091;DHT22;10205;49.678;6.560;2023-03-01T09:48:07;4.50;57.70
20091;DHT22;10205;49.678;6.560;2023-03-01T09:50:41;4.60;57.10
20091;DHT22;10205;49.678;6.560;2023-03-01T09:53:14;4.70;56.90
20091;DHT22;10205;49.678;6.560;2023-03-01T09:55:45;4.70;56.80
20091;DHT22;10205;49.678;6.560;2023-03-01T09:58:31;4.80;56.70
20091;DHT22;10205;49.678;6.560;2023-03-01T10:01:23;4.80;56.60
20091;DHT22;10205;49.678;6.560;2023-03-01T10:04:13;5.00;56.50
20091;DHT22;10205;49.678;6.560;2023-03-01T10:06:58;5.00;56.30
20091;DHT22;10205;49.678;6.560;2023-03-01T10:09:35;5.10;56.10
20091;DHT22;10205;49.678;6.560;2023-03-01T10:12:10;5.20;56.20
20091;DHT22;10205;49.678;6.560;2023-03-01T10:14:44;5.20;56.10
20091;DHT22;10205;49.678;6.560;2023-03-01T10:17:24;5.30;55.90
20091;DHT22;10205;49.678;6.560;2023-03-01T10:19:55;5.40;56.50
20091;DHT22;10205;49.678;6.560;2023-03-01T10:22:32;5.50;55.70
20091;DHT22;10205;49.678;6.560;2023-03-01T10:25:02;5.60;56.20
20091;DHT22;10205;49.678;6.560;2023-03-01T10:27:38;5.70;55.30
20091;DHT22;10205;49.678;6.560;2023-03-01T10:30:17;5.70;55.10
20091;DHT22;10205;49.678;6.560;2023-03-01T10:32:48;5.80;54.90
20091;DHT22;10205;49.678;6.560;2023-03-01T10:35:20;5.90;54.90
20091;DHT22;10205;49.678;6.560;2023-03-01T10:38:02;5.90;54.70
20091;DHT22;10205;49.678;6.560;2023-03-01T10:40:31;6.00;54.80
20091;DHT22;10205;49.678;6.560;2023-03-01T10:43:04;6.10;54.90
20091;DHT22;10205;49.678;6.560;2023-03-01T10:45:35;6.20;54.70
20091;DHT22;10205;49.678;6.560;2023-03-01T10:48:09;6.20;54.10
20091;DHT22;10205;49.678;6.560;2023-03-01T10:50:40;6.30;54.40
20091;DHT22;10205;49.678;6.560;2023-03-01T10:53:21;6.40;54.20
20091;DHT22;10205;49.678;6.560;2023-03-01T10:55:59;6.40;54.40
20091;DHT22;10205;49.678;6.560;2023-03-01T10:58:31;6.50;54.20
20091;DHT22;10205;49.678;6.560;2023-03-01T11:01:00;6.60;54.20
20091;DHT22;10205;49.678;6.560;2023-03-01T11:03:30;6.70;54.10
20091;DHT22;10205;49.678;6.560;2023-03-01T11:06:04;6.80;53.80
20091;DHT22;10205;49.678;6.560;2023-03-01T11:08:38;6.80;53.30
20091;DHT22;10205;49.678;6.560;2023-03-01T11:11:24;6.90;53.50
20091;DHT22;10205;49.678;6.560;2023-03-01T11:14:00;6.90;53.60
20091;DHT22;10205;49.678;6.560;2023-03-01T11:16:33;7.00;53.40
20091;DHT22;10205;49.678;6.560;2023-03-01T11:19:15;7.10;53.30
20091;DHT22;10205;49.678;6.560;2023-03-01T11:21:58;7.10;53.10
20091;DHT22;10205;49.678;6.560;2023-03-01T11:24:34;7.20;53.30
20091;DHT22;10205;49.678;6.560;2023-03-01T11:27:14;7.30;53.00
20091;DHT22;10205;49.678;6.560;2023-03-01T11:29:48;7.40;52.70
20091;DHT22;10205;49.678;6.560;2023-03-01T11:32:23;7.40;52.80
20091;DHT22;10205;49.678;6.560;2023-03-01T11:34:57;7.50;52.90
20091;DHT22;10205;49.678;6.560;2023-03-01T11:37:33;7.50;52.80
20091;DHT22;10205;49.678;6.560;2023-03-01T11:40:12;7.60;52.40
20091;DHT22;10205;49.678;6.560;2023-03-01T11:42:57;7.60;52.40
20091;DHT22;10205;49.678;6.560;2023-03-01T11:45:43;7.70;52.20
20091;DHT22;10205;49.678;6.560;2023-03-01T11:48:31;7.80;52.40
20091;DHT22;10205;49.678;6.560;2023-03-01T11:51:17;7.80;52.30
20091;DHT22;10205;49.678;6.560;2023-03-01T11:54:02;7.90;52.20
20091;DHT22;10205;49.678;6.560;2023-03-01T11:56:38;8.00;52.10
20091;DHT22;10205;49.678;6.560;2023-03-01T11:59:22;8.00;51.80
20091;DHT22;10205;49.678;6.560;2023-03-01T12:02:20;8.10;51.60
20091;DHT22;10205;49.678;6.560;2023-03-01T12:05:24;8.20;52.50
20091;DHT22;10205;49.678;6.560;2023-03-01T12:08:08;8.20;51.60
20091;DHT22;10205;49.678;6.560;2023-03-01T12:10:47;8.30;51.40
20091;DHT22;10205;49.678;6.560;2023-03-01T12:13:55;8.30;52.40
20091;DHT22;10205;49.678;6.560;2023-03-01T12:20:07;8.50;51.40
20091;DHT22;10205;49.678;6.560;2023-03-01T12:22:51;8.50;51.30
20091;DHT22;10205;49.678;6.560;2023-03-01T12:25:32;8.60;51.50
20091;DHT22;10205;49.678;6.560;2023-03-01T12:28:16;8.60;51.00
20091;DHT22;10205;49.678;6.560;2023-03-01T12:34:09;8.70;51.60
20091;DHT22;10205;49.678;6.560;2023-03-01T12:37:10;8.80;50.80
20091;DHT22;10205;49.678;6.560;2023-03-01T12:39:55;8.80;50.40
20091;DHT22;10205;49.678;6.560;2023-03-01T12:42:42;8.90;50.50
20091;DHT22;10205;49.678;6.560;2023-03-01T12:45:35;8.90;50.70
20091;DHT22;10205;49.678;6.560;2023-03-01T12:48:24;9.00;50.70
20091;DHT22;10205;49.678;6.560;2023-03-01T12:51:06;9.10;50.60
20091;DHT22;10205;49.678;6.560;2023-03-01T12:53:40;9.10;50.10
20091;DHT22;10205;49.678;6.560;2023-03-01T12:56:13;9.10;49.60
20091;DHT22;10205;49.678;6.560;2023-03-01T12:58:54;9.10;50.10
20091;DHT22;10205;49.678;6.560;2023-03-01T13:01:35;9.20;50.00
20091;DHT22;10205;49.678;6.560;2023-03-01T13:04:15;9.20;49.90
20091;DHT22;10205;49.678;6.560;2023-03-01T13:06:57;9.20;50.10
20091;DHT22;10205;49.678;6.560;2023-03-01T13:09:37;9.30;50.00
20091;DHT22;10205;49.678;6.560;2023-03-01T13:12:43;9.30;49.70
20091;DHT22;10205;49.678;6.560;2023-03-01T13:15:27;9.30;49.10
20091;DHT22;10205;49.678;6.560;2023-03-01T13:17:57;9.40;48.60
20091;DHT22;10205;49.678;6.560;2023-03-01T13:20:29;9.40;49.30
20091;DHT22;10205;49.678;6.560;2023-03-01T13:23:13;9.40;49.30
20091;DHT22;10205;49.678;6.560;2023-03-01T13:26:12;9.40;48.80
20091;DHT22;10205;49.678;6.560;2023-03-01T13:29:01;9.40;48.90
20091;DHT22;10205;49.678;6.560;2023-03-01T13:31:58;9.50;49.40
20091;DHT22;10205;49.678;6.560;2023-03-01T13:34:59;9.50;48.80
20091;DHT22;10205;49.678;6.560;2023-03-01T13:37:35;9.50;48.90
20091;DHT22;10205;49.678;6.560;2023-03-01T13:43:38;9.60;49.00
20091;DHT22;10205;49.678;6.560;2023-03-01T13:46:10;9.60;48.70
20091;DHT22;10205;49.678;6.560;2023-03-01T13:48:44;9.60;48.80
20091;DHT22;10205;49.678;6.560;2023-03-01T13:51:14;9.60;48.50
20091;DHT22;10205;49.678;6.560;2023-03-01T13:53:44;9.60;48.70
20091;DHT22;10205;49.678;6.560;2023-03-01T13:56:16;9.70;49.50
20091;DHT22;10205;49.678;6.560;2023-03-01T13:58:53;9.70;48.70
20091;DHT22;10205;49.678;6.560;2023-03-01T14:01:27;9.70;48.70
20091;DHT22;10205;49.678;6.560;2023-03-01T14:03:55;9.70;49.40
20091;DHT22;10205;49.678;6.560;2023-03-01T14:06:24;9.80;48.70
20091;DHT22;10205;49.678;6.560;2023-03-01T14:09:02;9.80;48.80
20091;DHT22;10205;49.678;6.560;2023-03-01T14:15:06;9.80;48.40
20091;DHT22;10205;49.678;6.560;2023-03-01T14:17:55;9.90;48.10
20091;DHT22;10205;49.678;6.560;2023-03-01T14:20:30;9.90;48.00
20091;DHT22;10205;49.678;6.560;2023-03-01T14:23:02;9.90;48.10
20091;DHT22;10205;49.678;6.560;2023-03-01T14:25:37;9.90;48.10
20091;DHT22;10205;49.678;6.560;2023-03-01T14:28:14;10.00;47.90
20091;DHT22;10205;49.678;6.560;2023-03-01T14:30:46;10.00;47.80
20091;DHT22;10205;49.678;6.560;2023-03-01T14:33:20;10.00;47.30
20091;DHT22;10205;49.678;6.560;2023-03-01T14:35:56;10.00;47.80
20091;DHT22;10205;49.678;6.560;2023-03-01T14:38:31;10.00;48.20
20091;DHT22;10205;49.678;6.560;2023-03-01T14:41:06;10.00;47.90
20091;DHT22;10205;49.678;6.560;2023-03-01T14:43:37;10.10;47.70
20091;DHT22;10205;49.678;6.560;2023-03-01T14:46:17;10.10;47.80
20091;DHT22;10205;49.678;6.560;2023-03-01T14:48:49;10.10;47.30
20091;DHT22;10205;49.678;6.560;2023-03-01T14:51:17;10.10;47.70
20091;DHT22;10205;49.678;6.560;2023-03-01T14:53:45;10.10;47.70
20091;DHT22;10205;49.678;6.560;2023-03-01T14:56:14;10.20;47.50
20091;DHT22;10205;49.678;6.560;2023-03-01T14:58:43;10.20;47.50
20091;DHT22;10205;49.678;6.560;2023-03-01T15:01:18;10.20;47.60
20091;DHT22;10205;49.678;6.560;2023-03-01T15:03:47;10.20;47.50
20091;DHT22;10205;49.678;6.560;2023-03-01T15:06:17;10.20;47.80
20091;DHT22;10205;49.678;6.560;2023-03-01T15:08:48;10.30;47.50
20091;DHT22;10205;49.678;6.560;2023-03-01T15:11:20;10.30;47.40
20091;DHT22;10205;49.678;6.560;2023-03-01T15:13:51;10.30;47.40
20091;DHT22;10205;49.678;6.560;2023-03-01T15:16:22;10.30;47.30
20091;DHT22;10205;49.678;6.560;2023-03-01T15:18:52;10.40;47.50
20091;DHT22;10205;49.678;6.560;2023-03-01T15:21:22;10.40;46.90
20091;DHT22;10205;49.678;6.560;2023-03-01T15:23:54;10.40;46.50
20091;DHT22;10205;49.678;6.560;2023-03-01T15:26:40;10.40;46.50
20091;DHT22;10205;49.678;6.560;2023-03-01T15:29:16;10.40;46.70
20091;DHT22;10205;49.678;6.560;2023-03-01T15:31:54;10.40;46.70
20091;DHT22;10205;49.678;6.560;2023-03-01T15:34:24;10.40;47.10
20091;DHT22;10205;49.678;6.560;2023-03-01T15:36:54;10.50;46.70
20091;DHT22;10205;49.678;6.560;2023-03-01T15:39:37;10.50;46.30
20091;DHT22;10205;49.678;6.560;2023-03-01T15:42:10;10.50;46.00
20091;DHT22;10205;49.678;6.560;2023-03-01T15:44:40;10.50;46.30
20091;DHT22;10205;49.678;6.560;2023-03-01T15:47:27;10.50;46.40
20091;DHT22;10205;49.678;6.560;2023-03-01T15:49:58;10.50;46.20
20091;DHT22;10205;49.678;6.560;2023-03-01T15:52:29;10.50;46.30
20091;DHT22;10205;49.678;6.560;2023-03-01T15:55:04;10.50;46.00
20091;DHT22;10205;49.678;6.560;2023-03-01T15:57:43;10.50;46.10
20091;DHT22;10205;49.678;6.560;2023-03-01T16:00:12;10.50;46.20
20091;DHT22;10205;49.678;6.560;2023-03-01T16:02:42;10.50;46.00
20091;DHT22;10205;49.678;6.560;2023-03-01T16:05:17;10.50;46.10
20091;DHT22;10205;49.678;6.560;2023-03-01T16:07:46;10.60;46.30
20091;DHT22;10205;49.678;6.560;2023-03-01T16:10:13;10.60;46.10
20091;DHT22;10205;49.678;6.560;2023-03-01T16:12:40;10.60;46.00
20091;DHT22;10205;49.678;6.560;2023-03-01T16:15:15;10.60;46.00
20091;DHT22;10205;49.678;6.560;2023-03-01T16:17:46;10.60;45.50
20091;DHT22;10205;49.678;6.560;2023-03-01T16:20:14;10.60;45.30
20091;DHT22;10205;49.678;6.560;2023-03-01T16:22:45;10.60;45.40
20091;DHT22;10205;49.678;6.560;2023-03-01T16:25:14;10.60;45.50
20091;DHT22;10205;49.678;6.560;2023-03-01T16:27:43;10.60;45.60
20091;DHT22;10205;49.678;6.560;2023-03-01T16:30:12;10.60;46.00
20091;DHT22;10205;49.678;6.560;2023-03-01T16:32:41;10.60;45.70
20091;DHT22;10205;49.678;6.560;2023-03-01T16:35:12;10.60;45.30
20091;DHT22;10205;49.678;6.560;2023-03-01T16:37:41;10.60;45.40
20091;DHT22;10205;49.678;6.560;2023-03-01T16:40:17;10.60;45.90
20091;DHT22;10205;49.678;6.560;2023-03-01T16:42:46;10.60;45.20
20091;DHT22;10205;49.678;6.560;2023-03-01T16:45:13;10.60;45.00
20091;DHT22;10205;49.678;6.560;2023-03-01T16:47:41;10.50;45.50
20091;DHT22;10205;49.678;6.560;2023-03-01T16:50:09;10.50;45.00
20091;DHT22;10205;49.678;6.560;2023-03-01T16:52:37;10.50;45.10
20091;DHT22;10205;49.678;6.560;2023-03-01T16:55:06;10.50;45.00
20091;DHT22;10205;49.678;6.560;2023-03-01T16:57:35;10.50;45.40
20091;DHT22;10205;49.678;6.560;2023-03-01T17:00:03;10.50;45.20
20091;DHT22;10205;49.678;6.560;2023-03-01T17:02:33;10.50;45.00
20091;DHT22;10205;49.678;6.560;2023-03-01T17:05:00;10.50;45.00
20091;DHT22;10205;49.678;6.560;2023-03-01T17:07:29;10.50;45.40
20091;DHT22;10205;49.678;6.560;2023-03-01T17:09:58;10.50;45.30
20091;DHT22;10205;49.678;6.560;2023-03-01T17:12:26;10.50;45.40
20091;DHT22;10205;49.678;6.560;2023-03-01T17:14:53;10.50;44.60
20091;DHT22;10205;49.678;6.560;2023-03-01T17:17:20;10.40;45.40
20091;DHT22;10205;49.678;6.560;2023-03-01T17:19:47;10.40;45.20
20091;DHT22;10205;49.678;6.560;2023-03-01T17:22:14;10.50;46.00
20091;DHT22;10205;49.678;6.560;2023-03-01T17:24:43;10.50;45.70
20091;DHT22;10205;49.678;6.560;2023-03-01T17:27:12;10.50;44.90
20091;DHT22;10205;49.678;6.560;2023-03-01T17:29:43;10.50;46.10
20091;DHT22;10205;49.678;6.560;2023-03-01T17:32:10;10.50;45.30
20091;DHT22;10205;49.678;6.560;2023-03-01T17:34:37;10.50;46.00
20091;DHT22;10205;49.678;6.560;2023-03-01T17:37:04;10.60;46.70
20091;DHT22;10205;49.678;6.560;2023-03-01T17:39:31;10.60;46.80
20091;DHT22;10205;49.678;6.560;2023-03-01T17:42:02;10.60;46.80
20091;DHT22;10205;49.678;6.560;2023-03-01T17:44:31;10.60;45.60
20091;DHT22;10205;49.678;6.560;2023-03-01T17:46:59;10.60;46.60
20091;DHT22;10205;49.678;6.560;2023-03-01T17:49:26;10.70;47.10
20091;DHT22;10205;49.678;6.560;2023-03-01T17:51:53;10.70;47.10
20091;DHT22;10205;49.678;6.560;2023-03-01T17:54:20;10.70;47.40
20091;DHT22;10205;49.678;6.560;2023-03-01T17:56:47;10.70;47.60
20091;DHT22;10205;49.678;6.560;2023-03-01T17:59:16;10.80;47.80
20091;DHT22;10205;49.678;6.560;2023-03-01T18:01:44;10.80;47.80
20091;DHT22;10205;49.678;6.560;2023-03-01T18:04:11;10.80;47.80
20091;DHT22;10205;49.678;6.560;2023-03-01T18:06:39;10.90;47.60
20091;DHT22;10205;49.678;6.560;2023-03-01T18:09:06;10.90;47.70
20091;DHT22;10205;49.678;6.560;2023-03-01T18:11:34;10.90;47.80
20091;DHT22;10205;49.678;6.560;2023-03-01T18:14:02;10.90;47.70
20091;DHT22;10205;49.678;6.560;2023-03-01T18:16:31;10.90;47.60
20091;DHT22;10205;49.678;6.560;2023-03-01T18:18:59;10.90;47.50
20091;DHT22;10205;49.678;6.560;2023-03-01T18:21:27;10.90;47.70
20091;DHT22;10205;49.678;6.560;2023-03-01T18:23:57;10.90;47.30
20091;DHT22;10205;49.678;6.560;2023-03-01T18:26:25;10.90;47.40
20091;DHT22;10205;49.678;6.560;2023-03-01T18:28:54;10.90;47.50
20091;DHT22;10205;49.678;6.560;2023-03-01T18:31:23;10.90;47.20
20091;DHT22;10205;49.678;6.560;2023-03-01T18:33:53;10.90;47.60
20091;DHT22;10205;49.678;6.560;2023-03-01T18:36:22;10.90;47.30
20091;DHT22;10205;49.678;6.560;2023-03-01T18:38:50;10.90;47.50
20091;DHT22;10205;49.678;6.560;2023-03-01T18:41:21;10.90;47.70
20091;DHT22;10205;49.678;6.560;2023-03-01T18:43:49;10.80;47.70
20091;DHT22;10205;49.678;6.560;2023-03-01T18:46:16;10.80;47.80
20091;DHT22;10205;49.678;6.560;2023-03-01T18:48:44;10.80;47.30
20091;DHT22;10205;49.678;6.560;2023-03-01T18:51:17;10.80;47.70
20091;DHT22;10205;49.678;6.560;2023-03-01T18:53:48;10.70;47.90
20091;DHT22;10205;49.678;6.560;2023-03-01T18:56:15;10.70;47.80
20091;DHT22;10205;49.678;6.560;2023-03-01T18:58:43;10.70;47.90
20091;DHT22;10205;49.678;6.560;2023-03-01T19:01:13;10.70;48.00
20091;DHT22;10205;49.678;6.560;2023-03-01T19:03:42;10.60;47.90